Terminal Aerodrome Forecast
Issued by NWS Charleston, WV

Home | Current Version | Previous Version | Text Only | Print | Product List | Glossary On
Versions: 1 2 3 4 5 6 7 8 9 10 11 12 13 14 15 16 17 18 19 20 21 22 23 24 25 26 27 28
334
FTUS41 KRLX 280846 AAC
TAFHTS
TAF AMD
KHTS 280846Z 2809/2906 VRB03KT 6SM SHRA VCTS BKN040CB
     FM281100 VRB03KT P6SM VCSH BKN050
     FM281300 00000KT 5SM BR OVC070
     FM281800 VRB03KT 3SM TSRA HZ OVC025CB
     FM290100 00000KT 6SM +TSRA BR OVC040CB
     FM290500 VRB03KT P6SM BKN200=

USA.gov is the U.S. government's official web portal to all federal, state and local government web resources and services.